sensor_id;sensor_type;location;lat;lon;timestamp;temperature;humidity
19878;DHT22;10101;52.204;9.910;2023-06-04T00:01:07;8.10;1.00
19878;DHT22;10101;52.204;9.910;2023-06-04T00:03:34;8.60;1.00
19878;DHT22;10101;52.204;9.910;2023-06-04T00:06:01;8.50;1.00
19878;DHT22;10101;52.204;9.910;2023-06-04T00:08:28;8.50;1.00
19878;DHT22;10101;52.204;9.910;2023-06-04T00:10:56;8.40;1.00
19878;DHT22;10101;52.204;9.910;2023-06-04T00:13:23;8.40;1.00
19878;DHT22;10101;52.204;9.910;2023-06-04T00:15:49;8.30;1.00
19878;DHT22;10101;52.204;9.910;2023-06-04T00:18:16;8.20;1.00
19878;DHT22;10101;52.204;9.910;2023-06-04T00:20:43;8.20;1.00
19878;DHT22;10101;52.204;9.910;2023-06-04T00:23:09;8.30;1.00
19878;DHT22;10101;52.204;9.910;2023-06-04T00:25:36;8.10;1.00
19878;DHT22;10101;52.204;9.910;2023-06-04T00:28:04;8.10;1.00
19878;DHT22;10101;52.204;9.910;2023-06-04T00:30:31;8.10;1.00
19878;DHT22;10101;52.204;9.910;2023-06-04T00:32:59;8.10;1.00
19878;DHT22;10101;52.204;9.910;2023-06-04T00:35:25;8.10;1.00
19878;DHT22;10101;52.204;9.910;2023-06-04T00:37:52;8.10;1.00
19878;DHT22;10101;52.204;9.910;2023-06-04T00:40:19;8.10;1.00
19878;DHT22;10101;52.204;9.910;2023-06-04T00:42:45;7.90;1.00
19878;DHT22;10101;52.204;9.910;2023-06-04T00:45:13;7.80;1.00
19878;DHT22;10101;52.204;9.910;2023-06-04T00:47:41;7.80;1.00
19878;DHT22;10101;52.204;9.910;2023-06-04T00:50:09;7.70;1.00
19878;DHT22;10101;52.204;9.910;2023-06-04T00:52:36;7.70;1.00
19878;DHT22;10101;52.204;9.910;2023-06-04T00:55:03;7.70;1.00
19878;DHT22;10101;52.204;9.910;2023-06-04T00:57:30;7.60;9.40
19878;DHT22;10101;52.204;9.910;2023-06-04T00:59:56;7.60;74.30
19878;DHT22;10101;52.204;9.910;2023-06-04T01:02:26;7.60;99.90
19878;DHT22;10101;52.204;9.910;2023-06-04T01:04:58;7.50;99.90
19878;DHT22;10101;52.204;9.910;2023-06-04T01:07:30;7.50;99.90
19878;DHT22;10101;52.204;9.910;2023-06-04T01:09:57;7.50;99.90
19878;DHT22;10101;52.204;9.910;2023-06-04T01:12:23;7.40;99.90
19878;DHT22;10101;52.204;9.910;2023-06-04T01:14:50;7.30;99.90
19878;DHT22;10101;52.204;9.910;2023-06-04T01:17:20;7.30;99.90
19878;DHT22;10101;52.204;9.910;2023-06-04T01:20:01;7.30;99.90
19878;DHT22;10101;52.204;9.910;2023-06-04T01:22:36;7.20;99.90
19878;DHT22;10101;52.204;9.910;2023-06-04T01:25:09;7.20;1.00
19878;DHT22;10101;52.204;9.910;2023-06-04T01:27:46;7.10;1.00
19878;DHT22;10101;52.204;9.910;2023-06-04T01:30:14;7.00;1.00
19878;DHT22;10101;52.204;9.910;2023-06-04T01:32:41;7.00;1.00
19878;DHT22;10101;52.204;9.910;2023-06-04T01:35:11;7.10;1.00
19878;DHT22;10101;52.204;9.910;2023-06-04T01:37:38;7.00;1.00
19878;DHT22;10101;52.204;9.910;2023-06-04T01:40:06;7.00;1.00
19878;DHT22;10101;52.204;9.910;2023-06-04T01:42:33;7.00;1.00
19878;DHT22;10101;52.204;9.910;2023-06-04T01:45:00;7.10;1.00
19878;DHT22;10101;52.204;9.910;2023-06-04T01:47:27;7.00;1.00
19878;DHT22;10101;52.204;9.910;2023-06-04T01:49:53;7.00;12.10
19878;DHT22;10101;52.204;9.910;2023-06-04T01:52:22;7.00;87.60
19878;DHT22;10101;52.204;9.910;2023-06-04T01:54:49;7.00;99.90
19878;DHT22;10101;52.204;9.910;2023-06-04T01:57:18;7.00;99.90
19878;DHT22;10101;52.204;9.910;2023-06-04T01:59:44;6.90;99.90
19878;DHT22;10101;52.204;9.910;2023-06-04T02:02:12;6.80;99.90
19878;DHT22;10101;52.204;9.910;2023-06-04T02:04:39;6.90;99.90
19878;DHT22;10101;52.204;9.910;2023-06-04T02:07:07;6.80;99.90
19878;DHT22;10101;52.204;9.910;2023-06-04T02:09:35;6.80;99.90
19878;DHT22;10101;52.204;9.910;2023-06-04T02:12:02;6.80;99.90
19878;DHT22;10101;52.204;9.910;2023-06-04T02:14:29;6.70;99.90
19878;DHT22;10101;52.204;9.910;2023-06-04T02:16:56;6.70;99.90
19878;DHT22;10101;52.204;9.910;2023-06-04T02:19:24;6.70;99.90
19878;DHT22;10101;52.204;9.910;2023-06-04T02:21:51;6.70;99.90
19878;DHT22;10101;52.204;9.910;2023-06-04T02:24:18;6.60;99.90
19878;DHT22;10101;52.204;9.910;2023-06-04T02:26:46;6.60;99.90
19878;DHT22;10101;52.204;9.910;2023-06-04T02:29:13;6.50;1.00
19878;DHT22;10101;52.204;9.910;2023-06-04T02:31:39;6.50;1.00
19878;DHT22;10101;52.204;9.910;2023-06-04T02:34:06;6.40;1.00
19878;DHT22;10101;52.204;9.910;2023-06-04T02:36:34;6.30;1.00
19878;DHT22;10101;52.204;9.910;2023-06-04T02:39:01;6.30;1.00
19878;DHT22;10101;52.204;9.910;2023-06-04T02:41:28;6.20;1.00
19878;DHT22;10101;52.204;9.910;2023-06-04T02:43:56;6.10;1.00
19878;DHT22;10101;52.204;9.910;2023-06-04T02:46:23;6.30;1.00
19878;DHT22;10101;52.204;9.910;2023-06-04T02:48:49;6.20;1.00
19878;DHT22;10101;52.204;9.910;2023-06-04T02:51:16;6.10;1.00
19878;DHT22;10101;52.204;9.910;2023-06-04T02:53:43;6.00;76.40
19878;DHT22;10101;52.204;9.910;2023-06-04T02:56:10;6.00;99.90
19878;DHT22;10101;52.204;9.910;2023-06-04T02:58:37;6.20;99.90
19878;DHT22;10101;52.204;9.910;2023-06-04T03:01:08;6.20;99.90
19878;DHT22;10101;52.204;9.910;2023-06-04T03:03:35;6.10;99.90
19878;DHT22;10101;52.204;9.910;2023-06-04T03:06:02;6.10;1.00
19878;DHT22;10101;52.204;9.910;2023-06-04T03:08:30;6.10;1.00
19878;DHT22;10101;52.204;9.910;2023-06-04T03:10:57;6.30;1.00
19878;DHT22;10101;52.204;9.910;2023-06-04T03:13:23;6.10;1.00
19878;DHT22;10101;52.204;9.910;2023-06-04T03:15:50;5.90;1.00
19878;DHT22;10101;52.204;9.910;2023-06-04T03:18:22;6.10;1.00
19878;DHT22;10101;52.204;9.910;2023-06-04T03:20:49;6.00;1.00
19878;DHT22;10101;52.204;9.910;2023-06-04T03:23:15;6.00;1.00
19878;DHT22;10101;52.204;9.910;2023-06-04T03:25:42;5.90;1.00
19878;DHT22;10101;52.204;9.910;2023-06-04T03:28:09;5.90;1.00
19878;DHT22;10101;52.204;9.910;2023-06-04T03:30:35;6.00;87.70
19878;DHT22;10101;52.204;9.910;2023-06-04T03:33:02;6.00;86.70
19878;DHT22;10101;52.204;9.910;2023-06-04T03:35:30;6.10;99.90
19878;DHT22;10101;52.204;9.910;2023-06-04T03:37:57;6.10;99.90
19878;DHT22;10101;52.204;9.910;2023-06-04T03:40:24;6.30;99.90
19878;DHT22;10101;52.204;9.910;2023-06-04T03:42:50;6.30;99.90
19878;DHT22;10101;52.204;9.910;2023-06-04T03:45:17;6.10;99.90
19878;DHT22;10101;52.204;9.910;2023-06-04T03:47:44;6.10;99.90
19878;DHT22;10101;52.204;9.910;2023-06-04T03:50:10;6.10;99.90
19878;DHT22;10101;52.204;9.910;2023-06-04T03:52:39;6.10;99.90
19878;DHT22;10101;52.204;9.910;2023-06-04T03:55:06;6.10;99.90
19878;DHT22;10101;52.204;9.910;2023-06-04T03:57:33;6.10;99.90
19878;DHT22;10101;52.204;9.910;2023-06-04T04:00:00;6.20;99.90
19878;DHT22;10101;52.204;9.910;2023-06-04T04:02:26;6.20;99.90
19878;DHT22;10101;52.204;9.910;2023-06-04T04:04:53;6.20;99.90
19878;DHT22;10101;52.204;9.910;2023-06-04T04:07:22;6.20;99.90
19878;DHT22;10101;52.204;9.910;2023-06-04T04:09:51;6.50;99.90
19878;DHT22;10101;52.204;9.910;2023-06-04T04:12:18;6.80;99.90
19878;DHT22;10101;52.204;9.910;2023-06-04T04:14:45;6.80;99.90
19878;DHT22;10101;52.204;9.910;2023-06-04T04:17:12;6.80;99.90
19878;DHT22;10101;52.204;9.910;2023-06-04T04:19:39;6.80;99.90
19878;DHT22;10101;52.204;9.910;2023-06-04T04:22:06;7.00;99.90
19878;DHT22;10101;52.204;9.910;2023-06-04T04:24:34;7.20;99.90
19878;DHT22;10101;52.204;9.910;2023-06-04T04:27:04;7.20;99.90
19878;DHT22;10101;52.204;9.910;2023-06-04T04:29:31;7.40;99.90
19878;DHT22;10101;52.204;9.910;2023-06-04T04:32:00;7.60;99.90
19878;DHT22;10101;52.204;9.910;2023-06-04T04:34:28;7.70;99.90
19878;DHT22;10101;52.204;9.910;2023-06-04T04:36:54;7.90;99.90
19878;DHT22;10101;52.204;9.910;2023-06-04T04:39:23;7.90;99.90
19878;DHT22;10101;52.204;9.910;2023-06-04T04:41:50;8.10;99.90
19878;DHT22;10101;52.204;9.910;2023-06-04T04:44:18;8.30;99.90
19878;DHT22;10101;52.204;9.910;2023-06-04T04:46:45;8.50;99.90
19878;DHT22;10101;52.204;9.910;2023-06-04T04:49:11;8.60;60.40
19878;DHT22;10101;52.204;9.910;2023-06-04T04:51:38;8.60;1.00
19878;DHT22;10101;52.204;9.910;2023-06-04T04:54:05;8.70;1.00
19878;DHT22;10101;52.204;9.910;2023-06-04T04:56:33;8.70;1.00
19878;DHT22;10101;52.204;9.910;2023-06-04T04:59:01;8.80;1.00
19878;DHT22;10101;52.204;9.910;2023-06-04T05:01:29;9.00;1.00
19878;DHT22;10101;52.204;9.910;2023-06-04T05:03:56;9.10;1.00
19878;DHT22;10101;52.204;9.910;2023-06-04T05:06:22;9.20;99.90
19878;DHT22;10101;52.204;9.910;2023-06-04T05:08:49;9.30;99.90
19878;DHT22;10101;52.204;9.910;2023-06-04T05:11:16;9.40;99.90
19878;DHT22;10101;52.204;9.910;2023-06-04T05:13:43;9.40;99.90
19878;DHT22;10101;52.204;9.910;2023-06-04T05:16:09;9.60;99.90
19878;DHT22;10101;52.204;9.910;2023-06-04T05:18:38;9.70;99.90
19878;DHT22;10101;52.204;9.910;2023-06-04T05:21:07;9.80;1.00
19878;DHT22;10101;52.204;9.910;2023-06-04T05:23:34;9.80;1.00
19878;DHT22;10101;52.204;9.910;2023-06-04T05:26:02;9.90;1.00
19878;DHT22;10101;52.204;9.910;2023-06-04T05:28:29;10.00;1.00
19878;DHT22;10101;52.204;9.910;2023-06-04T05:30:58;10.10;1.00
19878;DHT22;10101;52.204;9.910;2023-06-04T05:33:25;10.30;1.00
19878;DHT22;10101;52.204;9.910;2023-06-04T05:35:53;10.50;1.00
19878;DHT22;10101;52.204;9.910;2023-06-04T05:38:23;10.50;99.90
19878;DHT22;10101;52.204;9.910;2023-06-04T05:40:54;10.60;1.00
19878;DHT22;10101;52.204;9.910;2023-06-04T05:43:21;10.60;99.90
19878;DHT22;10101;52.204;9.910;2023-06-04T05:45:48;10.90;1.00
19878;DHT22;10101;52.204;9.910;2023-06-04T05:48:16;11.00;99.90
19878;DHT22;10101;52.204;9.910;2023-06-04T05:50:43;11.10;99.90
19878;DHT22;10101;52.204;9.910;2023-06-04T05:53:11;11.20;1.00
19878;DHT22;10101;52.204;9.910;2023-06-04T05:55:38;11.50;99.90
19878;DHT22;10101;52.204;9.910;2023-06-04T05:58:05;11.40;99.90
19878;DHT22;10101;52.204;9.910;2023-06-04T06:00:32;11.50;99.90
19878;DHT22;10101;52.204;9.910;2023-06-04T06:02:58;11.60;99.90
19878;DHT22;10101;52.204;9.910;2023-06-04T06:05:26;11.80;99.90
19878;DHT22;10101;52.204;9.910;2023-06-04T06:07:52;11.80;99.90
19878;DHT22;10101;52.204;9.910;2023-06-04T06:10:22;12.00;99.90
19878;DHT22;10101;52.204;9.910;2023-06-04T06:12:49;12.00;1.00
19878;DHT22;10101;52.204;9.910;2023-06-04T06:15:16;12.10;1.00
19878;DHT22;10101;52.204;9.910;2023-06-04T06:17:43;12.20;1.00
19878;DHT22;10101;52.204;9.910;2023-06-04T06:20:11;12.40;1.00
19878;DHT22;10101;52.204;9.910;2023-06-04T06:22:42;12.60;1.00
19878;DHT22;10101;52.204;9.910;2023-06-04T06:25:09;12.60;1.00
19878;DHT22;10101;52.204;9.910;2023-06-04T06:27:39;12.80;61.70
19878;DHT22;10101;52.204;9.910;2023-06-04T06:30:07;13.10;1.00
19878;DHT22;10101;52.204;9.910;2023-06-04T06:32:34;13.20;1.00
19878;DHT22;10101;52.204;9.910;2023-06-04T06:35:01;13.40;1.00
19878;DHT22;10101;52.204;9.910;2023-06-04T06:37:28;13.50;1.00
19878;DHT22;10101;52.204;9.910;2023-06-04T06:39:55;13.80;1.00
19878;DHT22;10101;52.204;9.910;2023-06-04T06:42:22;13.80;1.00
19878;DHT22;10101;52.204;9.910;2023-06-04T06:44:50;13.90;99.90
19878;DHT22;10101;52.204;9.910;2023-06-04T06:47:17;14.20;46.30
19878;DHT22;10101;52.204;9.910;2023-06-04T06:49:44;14.00;1.00
19878;DHT22;10101;52.204;9.910;2023-06-04T06:52:10;14.30;1.00
19878;DHT22;10101;52.204;9.910;2023-06-04T06:54:37;14.50;1.00
19878;DHT22;10101;52.204;9.910;2023-06-04T06:57:04;14.20;1.00
19878;DHT22;10101;52.204;9.910;2023-06-04T06:59:34;14.50;1.00
19878;DHT22;10101;52.204;9.910;2023-06-04T07:02:02;14.70;99.90
19878;DHT22;10101;52.204;9.910;2023-06-04T07:04:29;14.60;1.00
19878;DHT22;10101;52.204;9.910;2023-06-04T07:06:56;14.90;1.00
19878;DHT22;10101;52.204;9.910;2023-06-04T07:09:22;14.70;1.00
19878;DHT22;10101;52.204;9.910;2023-06-04T07:11:49;14.80;1.00
19878;DHT22;10101;52.204;9.910;2023-06-04T07:14:16;15.20;99.90
19878;DHT22;10101;52.204;9.910;2023-06-04T07:16:42;15.40;99.90
19878;DHT22;10101;52.204;9.910;2023-06-04T07:19:10;15.80;1.00
19878;DHT22;10101;52.204;9.910;2023-06-04T07:21:37;15.90;1.00
19878;DHT22;10101;52.204;9.910;2023-06-04T07:24:04;16.90;1.00
19878;DHT22;10101;52.204;9.910;2023-06-04T07:26:32;17.40;1.00
19878;DHT22;10101;52.204;9.910;2023-06-04T07:28:59;17.30;1.00
19878;DHT22;10101;52.204;9.910;2023-06-04T07:31:25;17.40;1.00
19878;DHT22;10101;52.204;9.910;2023-06-04T07:33:52;18.40;1.00
19878;DHT22;10101;52.204;9.910;2023-06-04T07:36:20;18.90;1.00
19878;DHT22;10101;52.204;9.910;2023-06-04T07:38:48;19.10;1.00
19878;DHT22;10101;52.204;9.910;2023-06-04T07:41:15;18.10;1.00
19878;DHT22;10101;52.204;9.910;2023-06-04T07:43:42;17.40;99.90
19878;DHT22;10101;52.204;9.910;2023-06-04T07:46:09;17.30;99.90
19878;DHT22;10101;52.204;9.910;2023-06-04T07:48:36;18.80;99.90
19878;DHT22;10101;52.204;9.910;2023-06-04T07:51:03;18.70;99.90
19878;DHT22;10101;52.204;9.910;2023-06-04T07:53:31;19.10;99.90
19878;DHT22;10101;52.204;9.910;2023-06-04T07:55:58;18.90;99.90
19878;DHT22;10101;52.204;9.910;2023-06-04T07:58:25;18.40;99.90
19878;DHT22;10101;52.204;9.910;2023-06-04T08:00:52;18.60;8.00
19878;DHT22;10101;52.204;9.910;2023-06-04T08:03:19;18.40;99.90
19878;DHT22;10101;52.204;9.910;2023-06-04T08:05:46;19.10;99.90
19878;DHT22;10101;52.204;9.910;2023-06-04T08:08:13;19.40;99.90
19878;DHT22;10101;52.204;9.910;2023-06-04T08:10:41;19.50;99.90
19878;DHT22;10101;52.204;9.910;2023-06-04T08:13:08;19.80;99.90
19878;DHT22;10101;52.204;9.910;2023-06-04T08:15:35;21.00;99.90
19878;DHT22;10101;52.204;9.910;2023-06-04T08:18:02;21.20;99.90
19878;DHT22;10101;52.204;9.910;2023-06-04T08:20:28;18.70;1.00
19878;DHT22;10101;52.204;9.910;2023-06-04T08:22:55;18.70;1.00
19878;DHT22;10101;52.204;9.910;2023-06-04T08:25:22;19.30;1.00
19878;DHT22;10101;52.204;9.910;2023-06-04T08:27:50;19.80;28.90
19878;DHT22;10101;52.204;9.910;2023-06-04T08:30:17;19.20;1.00
19878;DHT22;10101;52.204;9.910;2023-06-04T08:32:44;19.70;1.00
19878;DHT22;10101;52.204;9.910;2023-06-04T08:35:10;20.70;1.00
19878;DHT22;10101;52.204;9.910;2023-06-04T08:37:37;21.00;26.80
19878;DHT22;10101;52.204;9.910;2023-06-04T08:40:05;21.20;1.00
19878;DHT22;10101;52.204;9.910;2023-06-04T08:42:38;21.10;1.00
19878;DHT22;10101;52.204;9.910;2023-06-04T08:45:10;19.70;1.00
19878;DHT22;10101;52.204;9.910;2023-06-04T08:47:40;19.60;1.00
19878;DHT22;10101;52.204;9.910;2023-06-04T08:50:10;19.60;1.00
19878;DHT22;10101;52.204;9.910;2023-06-04T08:52:38;19.40;1.00
19878;DHT22;10101;52.204;9.910;2023-06-04T08:55:05;20.70;1.00
19878;DHT22;10101;52.204;9.910;2023-06-04T08:57:32;20.50;1.00
19878;DHT22;10101;52.204;9.910;2023-06-04T09:00:00;20.40;1.00
19878;DHT22;10101;52.204;9.910;2023-06-04T09:02:32;22.20;1.00
19878;DHT22;10101;52.204;9.910;2023-06-04T09:05:00;23.10;1.00
19878;DHT22;10101;52.204;9.910;2023-06-04T09:07:27;22.20;1.00
19878;DHT22;10101;52.204;9.910;2023-06-04T09:09:54;20.80;1.00
19878;DHT22;10101;52.204;9.910;2023-06-04T09:12:24;22.50;1.00
19878;DHT22;10101;52.204;9.910;2023-06-04T09:14:51;21.40;1.00
19878;DHT22;10101;52.204;9.910;2023-06-04T09:17:21;21.70;1.00
19878;DHT22;10101;52.204;9.910;2023-06-04T09:19:50;23.00;1.00
19878;DHT22;10101;52.204;9.910;2023-06-04T09:22:17;22.90;1.00
19878;DHT22;10101;52.204;9.910;2023-06-04T09:24:46;22.10;1.00
19878;DHT22;10101;52.204;9.910;2023-06-04T09:27:14;23.10;1.00
19878;DHT22;10101;52.204;9.910;2023-06-04T09:29:48;21.90;1.00
19878;DHT22;10101;52.204;9.910;2023-06-04T09:32:20;21.20;1.00
19878;DHT22;10101;52.204;9.910;2023-06-04T09:34:47;21.30;1.00
19878;DHT22;10101;52.204;9.910;2023-06-04T09:37:16;21.30;1.00
19878;DHT22;10101;52.204;9.910;2023-06-04T09:39:43;21.30;1.00
19878;DHT22;10101;52.204;9.910;2023-06-04T09:42:10;22.10;1.00
19878;DHT22;10101;52.204;9.910;2023-06-04T09:44:43;22.70;1.00
19878;DHT22;10101;52.204;9.910;2023-06-04T09:47:10;22.60;1.00
19878;DHT22;10101;52.204;9.910;2023-06-04T09:49:40;22.70;1.00
19878;DHT22;10101;52.204;9.910;2023-06-04T09:52:07;22.20;1.00
19878;DHT22;10101;52.204;9.910;2023-06-04T09:54:37;22.70;1.00
19878;DHT22;10101;52.204;9.910;2023-06-04T09:57:04;22.50;1.00
19878;DHT22;10101;52.204;9.910;2023-06-04T09:59:33;22.30;1.00
19878;DHT22;10101;52.204;9.910;2023-06-04T10:02:03;22.90;1.00
19878;DHT22;10101;52.204;9.910;2023-06-04T10:04:32;22.90;1.00
19878;DHT22;10101;52.204;9.910;2023-06-04T10:07:02;23.20;1.00
19878;DHT22;10101;52.204;9.910;2023-06-04T10:09:29;22.80;1.00
19878;DHT22;10101;52.204;9.910;2023-06-04T10:11:59;22.60;1.00
19878;DHT22;10101;52.204;9.910;2023-06-04T10:14:35;23.10;1.00
19878;DHT22;10101;52.204;9.910;2023-06-04T10:17:04;23.30;1.00
19878;DHT22;10101;52.204;9.910;2023-06-04T10:19:32;23.60;1.00
19878;DHT22;10101;52.204;9.910;2023-06-04T10:22:00;23.60;1.00
19878;DHT22;10101;52.204;9.910;2023-06-04T10:24:27;24.10;1.00
19878;DHT22;10101;52.204;9.910;2023-06-04T10:26:57;24.40;1.00
19878;DHT22;10101;52.204;9.910;2023-06-04T10:29:26;24.90;1.00
19878;DHT22;10101;52.204;9.910;2023-06-04T10:31:54;24.50;1.00
19878;DHT22;10101;52.204;9.910;2023-06-04T10:34:21;22.60;1.00
19878;DHT22;10101;52.204;9.910;2023-06-04T10:36:51;22.60;1.00
19878;DHT22;10101;52.204;9.910;2023-06-04T10:39:25;23.50;1.00
19878;DHT22;10101;52.204;9.910;2023-06-04T10:42:00;23.20;1.00
19878;DHT22;10101;52.204;9.910;2023-06-04T10:44:29;24.20;1.00
19878;DHT22;10101;52.204;9.910;2023-06-04T10:46:57;24.20;1.00
19878;DHT22;10101;52.204;9.910;2023-06-04T10:49:28;23.50;1.00
19878;DHT22;10101;52.204;9.910;2023-06-04T10:51:55;24.10;1.00
19878;DHT22;10101;52.204;9.910;2023-06-04T10:54:23;23.50;1.00
19878;DHT22;10101;52.204;9.910;2023-06-04T10:56:51;23.60;1.00
19878;DHT22;10101;52.204;9.910;2023-06-04T10:59:18;23.60;1.00
19878;DHT22;10101;52.204;9.910;2023-06-04T11:01:46;23.90;1.00
19878;DHT22;10101;52.204;9.910;2023-06-04T11:04:21;23.40;1.00
19878;DHT22;10101;52.204;9.910;2023-06-04T11:06:48;23.30;1.00
19878;DHT22;10101;52.204;9.910;2023-06-04T11:09:15;22.60;1.00
19878;DHT22;10101;52.204;9.910;2023-06-04T11:11:44;22.50;1.00
19878;DHT22;10101;52.204;9.910;2023-06-04T11:14:11;22.80;1.00
19878;DHT22;10101;52.204;9.910;2023-06-04T11:16:38;22.30;1.00
19878;DHT22;10101;52.204;9.910;2023-06-04T11:19:06;22.80;1.00
19878;DHT22;10101;52.204;9.910;2023-06-04T11:21:34;23.50;1.00
19878;DHT22;10101;52.204;9.910;2023-06-04T11:24:03;24.70;1.00
19878;DHT22;10101;52.204;9.910;2023-06-04T11:26:31;25.20;1.00
19878;DHT22;10101;52.204;9.910;2023-06-04T11:28:58;24.40;1.00
19878;DHT22;10101;52.204;9.910;2023-06-04T11:31:25;22.30;1.00
19878;DHT22;10101;52.204;9.910;2023-06-04T11:33:52;21.90;1.00
19878;DHT22;10101;52.204;9.910;2023-06-04T11:36:24;22.00;1.00
19878;DHT22;10101;52.204;9.910;2023-06-04T11:38:58;23.30;1.00
19878;DHT22;10101;52.204;9.910;2023-06-04T11:41:27;23.90;1.00
19878;DHT22;10101;52.204;9.910;2023-06-04T11:43:55;24.10;1.00
19878;DHT22;10101;52.204;9.910;2023-06-04T11:46:23;23.80;1.00
19878;DHT22;10101;52.204;9.910;2023-06-04T11:48:50;24.10;1.00
19878;DHT22;10101;52.204;9.910;2023-06-04T11:51:17;24.00;1.00
19878;DHT22;10101;52.204;9.910;2023-06-04T11:53:46;25.00;1.00
19878;DHT22;10101;52.204;9.910;2023-06-04T11:56:14;23.60;1.00
19878;DHT22;10101;52.204;9.910;2023-06-04T11:58:41;23.40;1.00
19878;DHT22;10101;52.204;9.910;2023-06-04T12:01:08;22.80;1.00
19878;DHT22;10101;52.204;9.910;2023-06-04T12:03:37;22.60;1.00
19878;DHT22;10101;52.204;9.910;2023-06-04T12:06:11;23.30;1.00
19878;DHT22;10101;52.204;9.910;2023-06-04T12:08:50;23.20;1.00
19878;DHT22;10101;52.204;9.910;2023-06-04T12:11:29;24.10;1.00
19878;DHT22;10101;52.204;9.910;2023-06-04T12:13:58;24.00;1.00
19878;DHT22;10101;52.204;9.910;2023-06-04T12:16:25;23.10;1.00
19878;DHT22;10101;52.204;9.910;2023-06-04T12:19:03;22.70;1.00
19878;DHT22;10101;52.204;9.910;2023-06-04T12:21:31;23.00;1.00
19878;DHT22;10101;52.204;9.910;2023-06-04T12:24:07;23.70;1.00
19878;DHT22;10101;52.204;9.910;2023-06-04T12:26:35;23.70;1.00
19878;DHT22;10101;52.204;9.910;2023-06-04T12:29:10;22.10;1.00
19878;DHT22;10101;52.204;9.910;2023-06-04T12:31:37;22.50;1.00
19878;DHT22;10101;52.204;9.910;2023-06-04T12:34:04;23.60;1.00
19878;DHT22;10101;52.204;9.910;2023-06-04T12:36:31;23.10;1.00
19878;DHT22;10101;52.204;9.910;2023-06-04T12:39:00;22.60;1.00
19878;DHT22;10101;52.204;9.910;2023-06-04T12:41:29;23.50;1.00
19878;DHT22;10101;52.204;9.910;2023-06-04T12:43:56;25.00;1.00
19878;DHT22;10101;52.204;9.910;2023-06-04T12:46:23;24.80;1.00
19878;DHT22;10101;52.204;9.910;2023-06-04T12:48:51;23.40;1.00
19878;DHT22;10101;52.204;9.910;2023-06-04T12:51:19;22.90;1.00
19878;DHT22;10101;52.204;9.910;2023-06-04T12:53:47;24.40;1.00
19878;DHT22;10101;52.204;9.910;2023-06-04T12:56:14;26.30;1.00
19878;DHT22;10101;52.204;9.910;2023-06-04T12:58:42;26.30;1.00
19878;DHT22;10101;52.204;9.910;2023-06-04T13:01:09;25.40;1.00
19878;DHT22;10101;52.204;9.910;2023-06-04T13:03:40;23.90;1.00
19878;DHT22;10101;52.204;9.910;2023-06-04T13:06:06;23.60;1.00
19878;DHT22;10101;52.204;9.910;2023-06-04T13:08:33;24.30;1.00
19878;DHT22;10101;52.204;9.910;2023-06-04T13:11:00;23.70;1.00
19878;DHT22;10101;52.204;9.910;2023-06-04T13:13:28;25.00;1.00
19878;DHT22;10101;52.204;9.910;2023-06-04T13:15:56;24.40;1.00
19878;DHT22;10101;52.204;9.910;2023-06-04T13:18:23;26.00;1.00
19878;DHT22;10101;52.204;9.910;2023-06-04T13:20:50;26.10;1.00
19878;DHT22;10101;52.204;9.910;2023-06-04T13:23:17;26.30;1.00
19878;DHT22;10101;52.204;9.910;2023-06-04T13:25:44;25.50;1.00
19878;DHT22;10101;52.204;9.910;2023-06-04T13:28:10;25.20;1.00
19878;DHT22;10101;52.204;9.910;2023-06-04T13:30:38;25.50;1.00
19878;DHT22;10101;52.204;9.910;2023-06-04T13:33:06;27.20;1.00
19878;DHT22;10101;52.204;9.910;2023-06-04T13:35:33;26.80;1.00
19878;DHT22;10101;52.204;9.910;2023-06-04T13:38:01;27.20;1.00
19878;DHT22;10101;52.204;9.910;2023-06-04T13:40:28;28.30;1.00
19878;DHT22;10101;52.204;9.910;2023-06-04T13:42:55;29.20;1.00
19878;DHT22;10101;52.204;9.910;2023-06-04T13:45:22;29.40;1.00
19878;DHT22;10101;52.204;9.910;2023-06-04T13:47:49;29.40;1.00
19878;DHT22;10101;52.204;9.910;2023-06-04T13:50:17;28.40;1.00
19878;DHT22;10101;52.204;9.910;2023-06-04T13:52:44;28.20;1.00
19878;DHT22;10101;52.204;9.910;2023-06-04T13:55:12;28.70;1.00
19878;DHT22;10101;52.204;9.910;2023-06-04T13:57:39;28.60;1.00
19878;DHT22;10101;52.204;9.910;2023-06-04T14:00:07;29.60;1.00
19878;DHT22;10101;52.204;9.910;2023-06-04T14:02:35;28.90;1.00
19878;DHT22;10101;52.204;9.910;2023-06-04T14:05:02;30.00;1.00
19878;DHT22;10101;52.204;9.910;2023-06-04T14:07:30;28.80;1.00
19878;DHT22;10101;52.204;9.910;2023-06-04T14:09:56;29.20;1.00
19878;DHT22;10101;52.204;9.910;2023-06-04T14:12:23;28.70;1.00
19878;DHT22;10101;52.204;9.910;2023-06-04T14:14:50;28.10;1.00
19878;DHT22;10101;52.204;9.910;2023-06-04T14:17:17;28.60;1.00
19878;DHT22;10101;52.204;9.910;2023-06-04T14:19:44;28.60;1.00
19878;DHT22;10101;52.204;9.910;2023-06-04T14:22:11;27.40;1.00
19878;DHT22;10101;52.204;9.910;2023-06-04T14:24:40;28.50;1.00
19878;DHT22;10101;52.204;9.910;2023-06-04T14:27:07;28.80;1.00
19878;DHT22;10101;52.204;9.910;2023-06-04T14:29:35;29.10;1.00
19878;DHT22;10101;52.204;9.910;2023-06-04T14:32:02;29.30;1.00
19878;DHT22;10101;52.204;9.910;2023-06-04T14:34:29;28.70;1.00
19878;DHT22;10101;52.204;9.910;2023-06-04T14:36:57;29.70;1.00
19878;DHT22;10101;52.204;9.910;2023-06-04T14:39:25;30.10;1.00
19878;DHT22;10101;52.204;9.910;2023-06-04T14:41:53;29.50;1.00
19878;DHT22;10101;52.204;9.910;2023-06-04T14:44:20;29.40;1.00
19878;DHT22;10101;52.204;9.910;2023-06-04T14:46:48;28.50;1.00
19878;DHT22;10101;52.204;9.910;2023-06-04T14:49:15;29.30;1.00
19878;DHT22;10101;52.204;9.910;2023-06-04T14:51:41;28.10;1.00
19878;DHT22;10101;52.204;9.910;2023-06-04T14:54:08;27.30;1.00
19878;DHT22;10101;52.204;9.910;2023-06-04T14:56:35;27.20;1.00
19878;DHT22;10101;52.204;9.910;2023-06-04T14:59:03;27.70;1.00
19878;DHT22;10101;52.204;9.910;2023-06-04T15:01:34;29.30;1.00
19878;DHT22;10101;52.204;9.910;2023-06-04T15:04:01;29.30;1.00
19878;DHT22;10101;52.204;9.910;2023-06-04T15:06:28;28.30;1.00
19878;DHT22;10101;52.204;9.910;2023-06-04T15:08:54;28.70;1.00
19878;DHT22;10101;52.204;9.910;2023-06-04T15:11:21;28.30;1.00
19878;DHT22;10101;52.204;9.910;2023-06-04T15:13:48;28.40;1.00
19878;DHT22;10101;52.204;9.910;2023-06-04T15:16:16;28.40;1.00
19878;DHT22;10101;52.204;9.910;2023-06-04T15:18:42;27.10;1.00
19878;DHT22;10101;52.204;9.910;2023-06-04T15:21:09;27.60;1.00
19878;DHT22;10101;52.204;9.910;2023-06-04T15:23:36;29.30;1.00
19878;DHT22;10101;52.204;9.910;2023-06-04T15:26:03;29.10;1.00
19878;DHT22;10101;52.204;9.910;2023-06-04T15:28:29;29.50;1.00
19878;DHT22;10101;52.204;9.910;2023-06-04T15:30:56;28.70;1.00
19878;DHT22;10101;52.204;9.910;2023-06-04T15:33:24;28.70;1.00
19878;DHT22;10101;52.204;9.910;2023-06-04T15:35:51;27.40;1.00
19878;DHT22;10101;52.204;9.910;2023-06-04T15:38:18;26.30;1.00
19878;DHT22;10101;52.204;9.910;2023-06-04T15:40:45;27.10;1.00
19878;DHT22;10101;52.204;9.910;2023-06-04T15:43:12;27.80;1.00
19878;DHT22;10101;52.204;9.910;2023-06-04T15:45:40;27.10;1.00
19878;DHT22;10101;52.204;9.910;2023-06-04T15:48:06;27.60;1.00
19878;DHT22;10101;52.204;9.910;2023-06-04T15:50:34;27.50;1.00